Time;durP1;ratioP1;P1;durP2;ratioP2;P2;SDS_P1;SDS_P2;PMS_P1;PMS_P2;Temp;Humidity;BMP_temperature;BMP_pressure;BME280_temperature;BME280_humidity;BME280_pressure;Samples;Min_cycle;Max_cycle;Signal;HPM_P1;HPM_P2
2020/12/08 05:02:12;;;;;;;32.53;22.17;;;5.00;99.90;;;;;;5024545;24;171568;-72
2020/12/08 05:04:38;;;;;;;32.40;21.83;;;5.00;99.90;;;;;;4668857;29;170291;-73
2020/12/08 05:07:07;;;;;;;41.23;22.93;;;5.00;99.90;;;;;;4669961;29;169819;-73
2020/12/08 05:09:45;;;;;;;31.43;22.13;;;5.00;99.90;;;;;;4670611;29;169477;-73
2020/12/08 05:12:19;;;;;;;30.60;21.40;;;5.00;99.90;;;;;;4667723;29;169917;-71
2020/12/08 05:14:45;;;;;;;31.33;21.20;;;5.00;99.90;;;;;;4671783;29;170499;-72
2020/12/08 05:17:12;;;;;;;29.87;20.67;;;4.90;99.90;;;;;;4670780;29;172152;-72
2020/12/08 05:19:38;;;;;;;35.20;22.20;;;4.90;99.90;;;;;;4666092;29;171724;-71
2020/12/08 05:22:04;;;;;;;32.47;21.63;;;4.90;99.90;;;;;;4668881;29;170043;-72
2020/12/08 05:24:32;;;;;;;43.00;22.63;;;4.90;99.90;;;;;;4671242;29;170035;-72
2020/12/08 05:27:01;;;;;;;32.37;22.03;;;4.90;99.90;;;;;;4669045;29;170990;-72
2020/12/08 05:29:28;;;;;;;35.93;22.00;;;4.90;99.90;;;;;;4670315;29;171349;-72
2020/12/08 05:31:55;;;;;;;50.27;23.23;;;4.90;99.90;;;;;;4670490;29;171051;-72
2020/12/08 05:34:24;;;;;;;33.77;22.13;;;4.90;99.90;;;;;;4669948;29;169989;-72
2020/12/08 05:36:53;;;;;;;30.23;21.23;;;4.90;99.90;;;;;;4667772;29;169252;-73
2020/12/08 05:39:22;;;;;;;29.77;20.90;;;4.90;99.90;;;;;;4670427;29;169939;-73
2020/12/08 05:41:50;;;;;;;32.50;21.63;;;4.90;99.90;;;;;;4669394;29;170269;-72
2020/12/08 05:44:23;;;;;;;31.70;21.60;;;4.90;99.90;;;;;;4670254;29;169978;-72
2020/12/08 05:46:51;;;;;;;54.87;24.17;;;4.90;99.90;;;;;;4670202;29;169434;-73
2020/12/08 05:49:19;;;;;;;67.00;24.87;;;4.90;99.90;;;;;;4669375;29;171965;-73
2020/12/08 05:51:47;;;;;;;36.47;22.30;;;4.90;99.90;;;;;;4669726;29;170724;-72
2020/12/08 05:54:21;;;;;;;38.07;21.57;;;4.90;99.90;;;;;;4669606;29;170641;-73
2020/12/08 05:56:50;;;;;;;31.67;21.47;;;4.80;99.90;;;;;;4668485;29;169295;-73
2020/12/08 05:59:27;;;;;;;30.37;21.00;;;4.80;99.90;;;;;;4669661;29;170193;-72
2020/12/08 06:01:54;;;;;;;32.40;21.87;;;4.90;99.90;;;;;;4667377;29;170614;-72
2020/12/08 06:04:21;;;;;;;34.83;22.23;;;4.80;99.90;;;;;;4657509;29;171488;-73
2020/12/08 06:06:52;;;;;;;54.23;24.87;;;4.80;99.90;;;;;;4665709;29;169280;-73
2020/12/08 06:09:23;;;;;;;28.77;21.00;;;4.80;99.90;;;;;;4661251;29;172612;-73
2020/12/08 06:11:49;;;;;;;32.07;22.13;;;4.80;99.90;;;;;;4664389;29;170694;-72
2020/12/08 06:14:15;;;;;;;32.80;20.97;;;4.80;99.90;;;;;;4655348;29;170393;-72
2020/12/08 06:16:41;;;;;;;33.43;21.13;;;4.80;99.90;;;;;;4653447;29;169928;-72
2020/12/08 06:19:07;;;;;;;34.23;21.50;;;4.80;99.90;;;;;;4655730;29;170511;-72
2020/12/08 06:21:37;;;;;;;29.57;20.77;;;4.70;99.90;;;;;;4653842;29;170460;-72
2020/12/08 06:24:05;;;;;;;39.37;20.63;;;4.70;99.90;;;;;;4653321;29;171016;-72
2020/12/08 06:26:40;;;;;;;30.57;20.37;;;4.70;99.90;;;;;;4652628;29;171282;-71
2020/12/08 06:29:08;;;;;;;30.10;21.20;;;4.70;99.90;;;;;;4658518;29;178725;-71
2020/12/08 06:31:49;;;;;;;33.33;21.07;;;4.80;99.90;;;;;;4651423;29;179840;-72
2020/12/08 06:34:19;;;;;;;30.20;21.00;;;4.70;99.90;;;;;;4660294;29;179143;-72
2020/12/08 06:36:45;;;;;;;33.77;22.27;;;4.70;99.90;;;;;;4653499;29;180981;-71
2020/12/08 06:39:13;;;;;;;60.60;38.60;;;4.70;99.90;;;;;;4644360;29;184084;-71
2020/12/08 06:41:41;;;;;;;40.20;27.40;;;4.70;99.90;;;;;;4650531;29;181806;-71
2020/12/08 06:44:21;;;;;;;37.60;21.33;;;4.70;99.90;;;;;;4671854;29;177921;-72
2020/12/08 06:46:58;;;;;;;31.57;21.60;;;4.70;99.90;;;;;;4651902;29;178307;-71
2020/12/08 06:49:27;;;;;;;35.13;21.33;;;4.70;99.90;;;;;;4663611;29;179845;-71
2020/12/08 06:51:57;;;;;;;31.20;20.70;;;4.70;99.90;;;;;;4655083;29;178941;-71
2020/12/08 06:54:24;;;;;;;29.83;21.27;;;4.70;99.90;;;;;;4673010;29;178144;-72
2020/12/08 06:57:00;;;;;;;30.40;20.47;;;4.70;99.90;;;;;;4676822;29;177114;-72
2020/12/08 06:59:28;;;;;;;34.10;21.90;;;4.70;99.90;;;;;;4658317;29;180051;-72
2020/12/08 07:01:56;;;;;;;32.87;21.43;;;4.70;99.90;;;;;;4656369;29;178427;-72
2020/12/08 07:04:25;;;;;;;29.07;20.77;;;4.70;99.90;;;;;;4657785;29;181704;-71
2020/12/08 07:06:52;;;;;;;33.23;20.73;;;4.60;99.90;;;;;;4666488;29;178164;-72
2020/12/08 07:09:18;;;;;;;36.23;20.33;;;4.60;99.90;;;;;;4665714;29;179041;-71
2020/12/08 07:11:44;;;;;;;29.47;20.67;;;4.70;99.90;;;;;;4662113;29;178379;-71
2020/12/08 07:14:11;;;;;;;30.00;21.00;;;4.70;99.90;;;;;;4663425;29;180426;-71
2020/12/08 07:16:37;;;;;;;33.10;21.73;;;4.60;99.90;;;;;;4656477;29;178597;-71
2020/12/08 07:19:06;;;;;;;31.50;21.47;;;4.60;99.90;;;;;;4660786;29;179599;-72
2020/12/08 07:21:33;;;;;;;29.40;20.60;;;4.60;99.90;;;;;;4666269;29;178902;-72
2020/12/08 07:24:09;;;;;;;54.57;23.83;;;4.60;99.90;;;;;;4662747;29;179231;-72
2020/12/08 07:26:37;;;;;;;29.37;20.90;;;4.60;99.90;;;;;;4648910;29;178019;-72
2020/12/08 07:29:03;;;;;;;31.47;21.27;;;4.60;99.90;;;;;;4661994;29;183494;-71
2020/12/08 07:31:30;;;;;;;31.77;22.67;;;4.60;99.90;;;;;;4664984;29;181991;-73
2020/12/08 07:34:00;;;;;;;98.33;26.83;;;4.60;99.90;;;;;;4665984;29;178100;-72
2020/12/08 07:36:29;;;;;;;31.73;20.47;;;4.60;99.90;;;;;;4666233;29;177946;-71
2020/12/08 07:38:57;;;;;;;130.13;26.70;;;4.60;99.90;;;;;;4664878;29;179127;-72
2020/12/08 07:41:26;;;;;;;48.47;21.90;;;4.60;99.90;;;;;;4664956;29;178756;-72
2020/12/08 07:43:53;;;;;;;45.83;22.17;;;4.60;99.90;;;;;;4659288;29;178648;-73
2020/12/08 07:46:23;;;;;;;126.20;28.87;;;4.60;99.90;;;;;;4651718;29;176625;-72
2020/12/08 07:49:07;;;;;;;31.97;20.33;;;4.60;99.90;;;;;;4648908;29;181728;-71
2020/12/08 07:51:35;;;;;;;106.93;27.57;;;4.60;99.90;;;;;;4652409;29;179106;-72
2020/12/08 07:54:04;;;;;;;36.27;21.77;;;4.60;99.90;;;;;;4653497;29;181677;-73
2020/12/08 07:56:33;;;;;;;30.50;21.23;;;4.60;99.90;;;;;;4651023;29;179416;-73
2020/12/08 07:59:00;;;;;;;38.37;20.97;;;4.50;99.90;;;;;;4665540;29;181649;-73
2020/12/08 08:01:27;;;;;;;40.30;21.50;;;4.50;99.90;;;;;;4655024;29;178277;-72
2020/12/08 08:03:53;;;;;;;140.77;29.27;;;4.50;99.90;;;;;;4667961;29;177858;-72
2020/12/08 08:06:21;;;;;;;27.80;20.03;;;4.50;99.90;;;;;;4667227;29;179161;-73
2020/12/08 08:08:48;;;;;;;51.30;22.47;;;4.50;99.90;;;;;;4667457;29;179602;-72
2020/12/08 08:11:16;;;;;;;33.70;21.67;;;4.50;99.90;;;;;;4668008;29;178077;-72
2020/12/08 08:13:43;;;;;;;42.80;21.77;;;4.50;99.90;;;;;;4667944;29;177927;-71
2020/12/08 08:16:13;;;;;;;32.17;21.30;;;4.50;99.90;;;;;;4668101;29;177964;-72
2020/12/08 08:18:40;;;;;;;29.03;20.50;;;4.50;99.90;;;;;;4666233;29;182608;-72
2020/12/08 08:21:07;;;;;;;31.37;20.87;;;4.50;99.90;;;;;;4666805;29;182979;-71
2020/12/08 08:23:34;;;;;;;30.63;21.17;;;4.50;99.90;;;;;;4667680;29;178563;-72
2020/12/08 08:26:05;;;;;;;52.53;22.93;;;4.50;99.90;;;;;;4668170;29;178387;-72
2020/12/08 08:28:31;;;;;;;96.93;24.63;;;4.50;99.90;;;;;;4667434;29;179170;-71
2020/12/08 08:30:58;;;;;;;51.93;23.73;;;4.50;99.90;;;;;;4667322;29;178453;-71
2020/12/08 08:33:24;;;;;;;30.43;21.50;;;4.40;99.90;;;;;;4665979;29;177943;-72
2020/12/08 08:35:50;;;;;;;28.67;21.07;;;4.50;99.90;;;;;;4668210;29;176425;-72
2020/12/08 08:38:18;;;;;;;32.67;21.17;;;4.40;99.90;;;;;;4667163;29;179870;-72
2020/12/08 08:40:45;;;;;;;29.63;21.80;;;4.40;99.90;;;;;;4666953;29;178529;-71
2020/12/08 08:43:11;;;;;;;68.77;24.33;;;4.40;99.90;;;;;;4665315;29;181734;-72
2020/12/08 08:45:37;;;;;;;71.63;25.80;;;4.40;99.90;;;;;;4667906;29;178666;-74
2020/12/08 08:48:05;;;;;;;84.13;25.97;;;4.40;99.90;;;;;;4662940;29;179876;-74
2020/12/08 08:50:31;;;;;;;76.33;26.77;;;4.40;99.90;;;;;;4663917;29;179159;-76
2020/12/08 08:52:59;;;;;;;54.77;24.97;;;4.40;99.90;;;;;;4652606;29;177971;-74
2020/12/08 08:55:25;;;;;;;56.13;25.03;;;4.40;99.90;;;;;;4647261;29;177954;-76
2020/12/08 08:58:01;;;;;;;35.70;22.37;;;4.40;99.90;;;;;;4657029;29;179313;-75
2020/12/08 09:00:28;;;;;;;35.67;22.93;;;4.50;99.90;;;;;;4664756;29;179760;-74
2020/12/08 09:02:58;;;;;;;36.23;22.53;;;4.40;99.90;;;;;;4663303;29;178479;-74
2020/12/08 09:05:25;;;;;;;42.60;23.13;;;4.40;99.90;;;;;;4653881;29;177987;-74
2020/12/08 09:07:52;;;;;;;31.80;22.63;;;4.50;99.90;;;;;;4645501;29;181984;-75
2020/12/08 09:10:18;;;;;;;31.13;22.57;;;4.50;99.90;;;;;;4652883;29;181731;-76
2020/12/08 09:12:44;;;;;;;35.73;22.50;;;4.50;99.90;;;;;;4663396;29;177903;-75
2020/12/08 09:15:12;;;;;;;31.93;21.90;;;4.50;99.90;;;;;;4653181;29;178614;-75
2020/12/08 09:17:38;;;;;;;32.33;23.17;;;4.60;99.90;;;;;;4645733;29;179303;-74
2020/12/08 09:20:05;;;;;;;35.13;23.13;;;4.60;99.90;;;;;;4647522;29;178474;-75
2020/12/08 09:22:31;;;;;;;32.27;23.23;;;4.60;99.90;;;;;;4646102;29;178062;-76
2020/12/08 09:24:58;;;;;;;34.37;22.70;;;4.70;99.90;;;;;;4647121;29;176441;-76
2020/12/08 09:27:24;;;;;;;39.27;23.37;;;4.60;99.90;;;;;;4646188;29;179246;-77
2020/12/08 09:29:51;;;;;;;32.23;23.60;;;4.80;99.90;;;;;;4647219;29;178022;-78
2020/12/08 09:32:18;;;;;;;34.17;23.73;;;4.80;99.90;;;;;;4647254;29;182601;-75
2020/12/08 09:34:45;;;;;;;33.20;23.17;;;5.20;99.90;;;;;;4658154;29;178503;-75
2020/12/08 09:37:12;;;;;;;33.50;23.13;;;5.10;99.90;;;;;;4663020;29;180444;-76
2020/12/08 09:39:38;;;;;;;37.40;24.47;;;5.10;99.90;;;;;;4663619;29;178794;-74
2020/12/08 09:42:05;;;;;;;30.40;22.63;;;5.10;99.90;;;;;;4663804;29;177922;-76
2020/12/08 09:44:31;;;;;;;36.57;24.00;;;5.10;99.90;;;;;;4664055;29;178385;-76
2020/12/08 09:46:57;;;;;;;34.93;24.10;;;5.10;99.90;;;;;;4663212;29;179367;-76
2020/12/08 09:49:24;;;;;;;35.93;25.07;;;5.10;99.90;;;;;;4663919;29;178570;-76
2020/12/08 09:51:50;;;;;;;34.00;24.83;;;5.10;99.90;;;;;;4658350;29;178461;-74
2020/12/08 09:54:17;;;;;;;36.50;25.07;;;5.10;99.90;;;;;;4659753;29;178492;-76
2020/12/08 09:56:47;;;;;;;32.90;24.20;;;5.10;99.90;;;;;;4656932;29;182681;-76
2020/12/08 09:59:13;;;;;;;35.93;24.63;;;5.10;99.90;;;;;;4658058;29;184144;-75
2020/12/08 10:01:40;;;;;;;34.37;24.60;;;5.10;99.90;;;;;;4658452;29;178568;-75
2020/12/08 10:04:07;;;;;;;38.13;24.80;;;5.20;99.90;;;;;;4663794;29;178104;-77
2020/12/08 10:06:33;;;;;;;33.90;25.03;;;5.20;99.90;;;;;;4660864;29;179333;-76
2020/12/08 10:09:00;;;;;;;36.00;23.97;;;5.20;99.90;;;;;;4661829;29;178526;-75
2020/12/08 10:11:26;;;;;;;37.53;26.03;;;5.30;99.90;;;;;;4661329;29;178711;-75
2020/12/08 10:13:53;;;;;;;33.77;25.57;;;5.30;99.90;;;;;;4646837;29;176485;-76
2020/12/08 10:16:24;;;;;;;31.57;24.40;;;5.30;99.90;;;;;;4648211;29;179818;-75
2020/12/08 10:18:52;;;;;;;36.40;24.73;;;5.40;99.90;;;;;;4654954;29;178440;-75
2020/12/08 10:21:20;;;;;;;38.47;25.17;;;5.40;99.90;;;;;;4644455;29;181837;-73
2020/12/08 10:23:47;;;;;;;35.63;25.67;;;5.40;99.90;;;;;;4649250;29;179677;-73
2020/12/08 10:26:13;;;;;;;35.03;25.60;;;5.40;99.90;;;;;;4657995;29;179292;-73
2020/12/08 10:28:40;;;;;;;36.20;26.20;;;5.30;99.90;;;;;;4663845;29;179345;-75
2020/12/08 10:31:06;;;;;;;34.87;25.43;;;5.30;99.90;;;;;;4665284;29;178141;-73
2020/12/08 10:33:32;;;;;;;36.13;24.83;;;5.20;99.90;;;;;;4664502;29;178454;-76
2020/12/08 10:36:00;;;;;;;32.70;24.37;;;5.20;99.90;;;;;;4664617;29;180036;-75
2020/12/08 10:38:27;;;;;;;36.70;25.70;;;5.20;99.90;;;;;;4662827;29;179023;-74
2020/12/08 10:40:54;;;;;;;35.67;26.43;;;5.20;99.90;;;;;;4664988;29;179151;-74
2020/12/08 10:43:22;;;;;;;36.20;25.47;;;5.30;99.90;;;;;;4663677;29;178415;-75
2020/12/08 10:46:03;;;;;;;39.60;26.13;;;5.30;99.90;;;;;;4650743;29;183052;-76
2020/12/08 10:48:30;;;;;;;39.07;27.47;;;5.30;99.90;;;;;;4653903;29;181627;-75
2020/12/08 10:50:56;;;;;;;35.67;26.47;;;5.30;99.90;;;;;;4656606;29;178285;-74
2020/12/08 10:53:22;;;;;;;40.63;27.57;;;5.40;99.90;;;;;;4658034;29;178512;-78
2020/12/08 10:55:49;;;;;;;36.47;26.43;;;5.50;99.90;;;;;;4647889;29;180706;-73
2020/12/08 10:58:17;;;;;;;42.37;28.57;;;5.50;99.90;;;;;;4665889;29;178362;-74
2020/12/08 11:00:43;;;;;;;38.07;27.03;;;5.50;99.90;;;;;;4658973;29;179365;-75
2020/12/08 11:03:13;;;;;;;38.10;26.53;;;5.50;99.90;;;;;;4652211;29;177179;-76
2020/12/08 11:05:42;;;;;;;40.93;27.47;;;5.80;99.90;;;;;;4646458;29;179266;-76
2020/12/08 11:08:10;;;;;;;39.50;27.30;;;5.60;99.90;;;;;;4652189;29;180046;-75
2020/12/08 11:10:37;;;;;;;38.73;27.50;;;5.70;99.90;;;;;;4664339;29;181275;-75
2020/12/08 11:13:05;;;;;;;37.87;28.43;;;5.70;99.90;;;;;;4679052;29;178965;-77
2020/12/08 11:15:32;;;;;;;37.07;27.67;;;5.70;99.90;;;;;;4667984;29;179149;-77
2020/12/08 11:17:58;;;;;;;43.43;29.07;;;5.70;99.90;;;;;;4665345;29;180130;-77
2020/12/08 11:20:24;;;;;;;40.10;28.30;;;5.80;99.90;;;;;;4672916;29;178957;-76
2020/12/08 11:22:50;;;;;;;38.60;29.00;;;5.80;99.90;;;;;;4654616;29;179267;-74
2020/12/08 11:25:17;;;;;;;36.30;27.70;;;5.90;99.90;;;;;;4648124;29;179377;-78
2020/12/08 11:27:43;;;;;;;36.67;27.93;;;5.90;99.90;;;;;;4658654;29;178663;-76
2020/12/08 11:30:09;;;;;;;39.93;27.40;;;5.90;99.90;;;;;;4666380;29;177938;-75
2020/12/08 11:32:35;;;;;;;41.37;28.23;;;6.00;99.90;;;;;;4663376;29;179908;-76
2020/12/08 11:35:02;;;;;;;38.10;28.53;;;5.90;99.90;;;;;;4664900;29;183106;-76
2020/12/08 11:37:29;;;;;;;37.83;28.23;;;6.00;99.90;;;;;;4656528;29;186996;-77
2020/12/08 11:40:13;;;;;;;38.40;29.10;;;6.00;99.90;;;;;;4648443;29;178421;-75
2020/12/08 11:42:40;;;;;;;40.63;29.00;;;6.10;99.90;;;;;;4655565;29;179025;-77
2020/12/08 11:45:06;;;;;;;40.53;28.60;;;6.00;99.90;;;;;;4663995;29;181534;-77
2020/12/08 11:47:32;;;;;;;41.73;29.87;;;6.00;99.90;;;;;;4657474;29;180315;-75
2020/12/08 11:49:58;;;;;;;40.03;28.67;;;6.10;99.90;;;;;;4648092;29;177964;-75
2020/12/08 11:52:25;;;;;;;40.93;29.63;;;6.10;99.90;;;;;;4648328;29;177049;-75
2020/12/08 11:54:51;;;;;;;40.43;29.37;;;6.10;99.90;;;;;;4647151;29;182583;-76
2020/12/08 11:57:17;;;;;;;38.87;29.40;;;6.10;99.90;;;;;;4654273;29;177968;-81
2020/12/08 11:59:44;;;;;;;39.37;29.03;;;6.10;99.90;;;;;;4664659;29;181356;-75
2020/12/08 12:02:10;;;;;;;39.93;28.90;;;6.10;99.90;;;;;;4662961;29;177997;-75
2020/12/08 12:04:41;;;;;;;39.13;29.43;;;6.10;99.90;;;;;;4665499;29;179248;-74
2020/12/08 12:07:07;;;;;;;39.83;29.97;;;6.10;99.90;;;;;;4656285;29;179040;-79
2020/12/08 12:09:34;;;;;;;40.73;29.90;;;6.10;99.90;;;;;;4679163;29;178428;-76
2020/12/08 12:12:00;;;;;;;43.47;30.83;;;6.20;99.90;;;;;;4672070;29;179306;-77
2020/12/08 12:14:26;;;;;;;41.37;28.73;;;6.10;99.90;;;;;;4657950;29;179388;-76
2020/12/08 12:16:52;;;;;;;38.90;29.67;;;6.20;99.90;;;;;;4649355;29;179385;-78
2020/12/08 12:19:19;;;;;;;40.30;30.47;;;6.20;99.90;;;;;;4647626;29;178835;-76
2020/12/08 12:21:45;;;;;;;46.73;31.30;;;6.30;99.90;;;;;;4646272;29;178600;-77
2020/12/08 12:24:11;;;;;;;41.67;30.77;;;6.20;99.90;;;;;;4645416;29;183805;-78
2020/12/08 12:26:43;;;;;;;41.00;30.63;;;6.10;99.90;;;;;;4650995;29;181881;-76
2020/12/08 12:29:09;;;;;;;40.47;31.23;;;6.20;99.90;;;;;;4665316;29;177900;-76
2020/12/08 12:31:35;;;;;;;39.83;30.30;;;6.20;99.90;;;;;;4664432;29;178338;-77
2020/12/08 12:34:01;;;;;;;40.70;31.17;;;6.20;99.90;;;;;;4663955;29;179560;-78
2020/12/08 12:36:28;;;;;;;42.37;29.90;;;6.20;99.90;;;;;;4647619;29;178398;-77
2020/12/08 12:38:54;;;;;;;40.37;29.83;;;6.20;99.90;;;;;;4647380;29;178427;-76
2020/12/08 12:41:23;;;;;;;43.03;32.03;;;6.30;99.90;;;;;;4647573;29;177108;-76
2020/12/08 12:43:50;;;;;;;39.63;30.17;;;6.20;99.90;;;;;;4646022;29;181887;-77
2020/12/08 12:46:17;;;;;;;43.07;30.87;;;6.20;99.90;;;;;;4652105;29;179140;-77
2020/12/08 12:48:45;;;;;;;41.67;30.43;;;6.20;99.90;;;;;;4662159;29;181915;-82
2020/12/08 12:51:12;;;;;;;41.37;29.57;;;6.20;99.90;;;;;;4658713;29;178036;-78
2020/12/08 12:53:38;;;;;;;42.67;31.03;;;6.20;99.90;;;;;;4652191;29;180017;-76
2020/12/08 12:56:04;;;;;;;42.13;31.40;;;6.20;99.90;;;;;;4664638;29;177991;-77
2020/12/08 12:58:31;;;;;;;41.40;30.17;;;6.20;99.90;;;;;;4651991;29;178034;-75
2020/12/08 13:01:00;;;;;;;40.90;30.47;;;6.20;99.90;;;;;;4664222;29;178550;-78
2020/12/08 13:03:32;;;;;;;41.90;30.37;;;6.20;99.90;;;;;;4655553;29;179778;-77
2020/12/08 13:05:59;;;;;;;39.83;29.60;;;6.20;99.90;;;;;;4648306;29;179478;-77
2020/12/08 13:08:25;;;;;;;41.63;31.07;;;6.20;99.90;;;;;;4649351;29;179653;-77
2020/12/08 13:10:52;;;;;;;40.17;30.77;;;6.20;99.90;;;;;;4654680;29;177911;-78
2020/12/08 13:13:18;;;;;;;44.37;30.77;;;6.20;99.90;;;;;;4662254;29;183910;-76
2020/12/08 13:15:45;;;;;;;45.67;31.37;;;6.10;99.90;;;;;;4652854;29;183404;-77
2020/12/08 13:18:11;;;;;;;42.27;31.27;;;6.20;99.90;;;;;;4660782;29;178566;-77
2020/12/08 13:20:37;;;;;;;42.03;30.37;;;6.10;99.90;;;;;;4664512;29;178386;-77
2020/12/08 13:23:07;;;;;;;40.73;30.03;;;6.20;99.90;;;;;;4663550;29;182602;-77
2020/12/08 13:25:33;;;;;;;40.57;29.17;;;6.10;99.90;;;;;;4666109;29;178835;-77
2020/12/08 13:28:00;;;;;;;41.90;31.33;;;6.10;99.90;;;;;;4666923;29;178672;-77
2020/12/08 13:30:26;;;;;;;42.03;30.43;;;6.40;99.90;;;;;;4668053;29;176479;-77
2020/12/08 13:32:52;;;;;;;44.47;31.27;;;6.10;99.90;;;;;;4666548;29;179207;-76
2020/12/08 13:35:20;;;;;;;43.13;31.77;;;6.00;99.90;;;;;;4667011;29;178405;-77
2020/12/08 13:37:46;;;;;;;44.10;31.37;;;6.10;99.90;;;;;;4663602;29;181335;-78
2020/12/08 13:40:14;;;;;;;42.20;31.33;;;6.20;99.90;;;;;;4665343;29;178100;-77
2020/12/08 13:42:43;;;;;;;45.13;31.37;;;6.00;99.90;;;;;;4665403;29;182177;-77
2020/12/08 13:45:09;;;;;;;43.43;31.53;;;6.00;99.90;;;;;;4666432;29;178433;-77
2020/12/08 13:47:35;;;;;;;43.10;29.97;;;6.00;99.90;;;;;;4667276;29;177980;-77
2020/12/08 13:50:03;;;;;;;41.37;30.90;;;6.00;99.90;;;;;;4667330;29;178417;-76
2020/12/08 13:52:30;;;;;;;42.70;30.60;;;6.00;99.90;;;;;;4665578;29;180215;-76
2020/12/08 13:54:56;;;;;;;45.60;32.97;;;5.90;99.90;;;;;;4667416;29;177278;-76
2020/12/08 13:57:22;;;;;;;44.90;32.60;;;6.00;99.90;;;;;;4667238;29;178033;-75
2020/12/08 13:59:48;;;;;;;48.83;32.93;;;6.00;99.90;;;;;;4665644;29;178077;-76
2020/12/08 14:02:19;;;;;;;47.17;32.47;;;5.90;99.90;;;;;;4663944;29;182163;-76
2020/12/08 14:04:45;;;;;;;44.03;32.53;;;5.90;99.90;;;;;;4668937;29;181796;-76
2020/12/08 14:07:13;;;;;;;42.97;31.27;;;5.90;99.90;;;;;;4669995;29;177844;-75
2020/12/08 14:09:49;;;;;;;47.23;32.80;;;5.80;99.90;;;;;;4670314;29;177926;-75
2020/12/08 14:12:16;;;;;;;48.97;33.17;;;5.80;99.90;;;;;;4665834;29;179399;-75
2020/12/08 14:14:42;;;;;;;46.17;32.17;;;5.70;99.90;;;;;;4657146;29;178319;-75
2020/12/08 14:17:08;;;;;;;45.83;32.03;;;5.70;99.90;;;;;;4669892;29;178501;-66
2020/12/08 14:19:35;;;;;;;45.17;32.60;;;5.70;99.90;;;;;;4670509;29;176853;-71
2020/12/08 14:22:01;;;;;;;44.00;32.20;;;5.60;99.90;;;;;;4669719;29;178566;-71
2020/12/08 14:24:29;;;;;;;46.53;32.67;;;5.60;99.90;;;;;;4669848;29;178343;-72
2020/12/08 14:27:01;;;;;;;49.07;33.10;;;5.60;99.90;;;;;;4667577;29;181189;-71
2020/12/08 14:29:27;;;;;;;48.20;31.40;;;5.50;99.90;;;;;;4669662;29;178500;-71
2020/12/08 14:31:54;;;;;;;47.20;31.73;;;5.50;99.90;;;;;;4669100;29;179005;-72
2020/12/08 14:34:20;;;;;;;46.83;32.47;;;5.40;99.90;;;;;;4657974;29;179121;-72
2020/12/08 14:36:46;;;;;;;47.80;32.50;;;5.40;99.90;;;;;;4653371;29;178652;-71
2020/12/08 14:39:13;;;;;;;45.47;31.57;;;5.30;99.90;;;;;;4666921;29;179688;-73
2020/12/08 14:41:39;;;;;;;51.57;33.13;;;5.30;99.90;;;;;;4664562;29;179787;-74
2020/12/08 14:44:05;;;;;;;45.70;32.03;;;5.30;99.90;;;;;;4666079;29;178536;-74
2020/12/08 14:46:33;;;;;;;48.13;33.40;;;5.20;99.90;;;;;;4663149;29;178553;-72
2020/12/08 14:49:00;;;;;;;43.80;32.30;;;5.20;99.90;;;;;;4659313;29;178846;-72
2020/12/08 14:51:27;;;;;;;48.87;32.00;;;5.10;99.90;;;;;;4662826;29;183750;-71
2020/12/08 14:53:54;;;;;;;50.60;33.50;;;5.10;99.90;;;;;;4663666;29;182369;-71
2020/12/08 14:56:23;;;;;;;45.20;32.07;;;5.00;99.90;;;;;;4664988;29;179937;-72
2020/12/08 14:58:50;;;;;;;46.40;32.00;;;5.00;99.90;;;;;;4665532;29;178533;-72
2020/12/08 15:01:18;;;;;;;41.27;30.90;;;5.00;99.90;;;;;;4652966;29;182341;-71
2020/12/08 15:03:45;;;;;;;46.80;32.70;;;5.00;99.90;;;;;;4665768;29;179338;-71
2020/12/08 15:06:14;;;;;;;54.33;36.53;;;4.90;99.90;;;;;;4665867;29;178656;-72
2020/12/08 15:08:41;;;;;;;69.97;34.73;;;4.90;99.90;;;;;;4665271;29;176399;-70
2020/12/08 15:11:08;;;;;;;47.73;33.07;;;4.80;99.90;;;;;;4651855;29;180075;-71
2020/12/08 15:13:35;;;;;;;51.07;33.63;;;4.80;99.90;;;;;;4650367;29;180983;-71
2020/12/08 15:16:02;;;;;;;66.17;44.03;;;4.70;99.90;;;;;;4652778;29;184112;-71
2020/12/08 15:18:28;;;;;;;79.97;41.87;;;4.70;99.90;;;;;;4656044;29;179732;-71
2020/12/08 15:20:56;;;;;;;55.77;39.27;;;4.70;99.90;;;;;;4656864;29;180463;-71
2020/12/08 15:23:22;;;;;;;45.40;32.30;;;4.70;99.90;;;;;;4663641;29;178585;-71
2020/12/08 15:25:49;;;;;;;49.10;33.03;;;4.60;99.90;;;;;;4652464;29;180098;-72
2020/12/08 15:28:18;;;;;;;45.17;31.20;;;4.60;99.90;;;;;;4653888;29;180227;-71
2020/12/08 15:30:44;;;;;;;46.13;33.13;;;4.50;99.90;;;;;;4652578;29;179925;-71
2020/12/08 15:33:10;;;;;;;49.50;35.20;;;4.50;99.90;;;;;;4654913;29;178757;-71
2020/12/08 15:35:39;;;;;;;56.67;34.53;;;4.50;99.90;;;;;;4650355;29;179089;-72
2020/12/08 15:38:11;;;;;;;54.27;34.47;;;4.50;99.90;;;;;;4649313;29;178184;-72
2020/12/08 15:40:38;;;;;;;45.60;31.07;;;4.40;99.90;;;;;;4647668;29;183214;-72
2020/12/08 15:43:06;;;;;;;51.50;31.27;;;4.40;99.90;;;;;;4653218;29;182098;-71
2020/12/08 15:45:32;;;;;;;49.40;32.30;;;4.40;99.90;;;;;;4654605;29;179059;-72
2020/12/08 15:47:59;;;;;;;48.50;32.53;;;4.40;99.90;;;;;;4652496;29;178060;-71
2020/12/08 15:50:26;;;;;;;48.80;33.23;;;4.30;99.90;;;;;;4649843;29;181280;-72
2020/12/08 15:52:53;;;;;;;49.30;31.83;;;4.30;99.90;;;;;;4654027;29;179139;-71
2020/12/08 15:55:19;;;;;;;45.97;31.90;;;4.30;99.90;;;;;;4655100;29;179328;-72
2020/12/08 15:57:46;;;;;;;64.53;33.47;;;4.20;99.90;;;;;;4655719;29;178961;-71
2020/12/08 16:00:14;;;;;;;45.50;31.93;;;4.20;99.90;;;;;;4655656;29;179394;-73
2020/12/08 16:02:44;;;;;;;43.30;31.30;;;4.10;99.90;;;;;;4648126;29;178329;-71
2020/12/08 16:05:21;;;;;;;45.00;30.73;;;4.10;99.90;;;;;;4662007;29;181599;-73
2020/12/08 16:07:48;;;;;;;45.23;31.27;;;4.10;99.90;;;;;;4657186;29;178494;-73
2020/12/08 16:10:14;;;;;;;46.70;30.50;;;4.00;99.90;;;;;;4654426;29;181003;-75
2020/12/08 16:12:40;;;;;;;46.63;31.13;;;4.00;99.90;;;;;;4653245;29;178466;-73
2020/12/08 16:15:07;;;;;;;43.00;31.47;;;4.00;99.90;;;;;;4664951;29;178685;-73
2020/12/08 16:17:34;;;;;;;43.03;29.77;;;4.00;99.90;;;;;;4657595;29;179178;-69
2020/12/08 16:20:02;;;;;;;49.30;32.73;;;3.90;99.90;;;;;;4666743;29;179316;-72
2020/12/08 16:22:28;;;;;;;45.53;31.23;;;3.90;99.90;;;;;;4670980;29;177302;-76
2020/12/08 16:24:54;;;;;;;43.43;29.47;;;3.80;99.90;;;;;;4657003;29;178343;-73
2020/12/08 16:27:21;;;;;;;45.90;30.03;;;3.70;99.90;;;;;;4664866;29;178521;-73
2020/12/08 16:29:47;;;;;;;43.47;29.80;;;3.70;99.90;;;;;;4661482;29;182142;-73
2020/12/08 16:32:15;;;;;;;43.43;29.10;;;3.70;99.90;;;;;;4664556;29;183299;-71
2020/12/08 16:34:41;;;;;;;52.00;33.83;;;3.70;99.90;;;;;;4665156;29;178022;-70
2020/12/08 16:37:11;;;;;;;42.43;29.90;;;3.60;99.90;;;;;;4668558;29;178016;-70
2020/12/08 16:39:38;;;;;;;46.23;31.63;;;3.60;99.90;;;;;;4667977;29;179593;-70
2020/12/08 16:42:04;;;;;;;51.77;31.60;;;3.60;99.90;;;;;;4659677;29;178116;-69
2020/12/08 16:44:31;;;;;;;49.70;32.07;;;3.50;99.90;;;;;;4665024;29;178116;-69
2020/12/08 16:47:07;;;;;;;43.57;30.63;;;3.60;99.90;;;;;;4671271;29;176600;-69
2020/12/08 16:49:36;;;;;;;47.37;31.37;;;3.60;99.90;;;;;;4659914;29;180020;-70
2020/12/08 16:52:12;;;;;;;44.23;30.77;;;3.50;99.90;;;;;;4646399;29;178633;-70
2020/12/08 16:54:39;;;;;;;46.00;31.23;;;3.60;99.90;;;;;;4656237;29;181992;-70
2020/12/08 16:57:06;;;;;;;41.73;29.57;;;3.60;99.90;;;;;;4659280;29;178443;-70
2020/12/08 16:59:33;;;;;;;47.77;30.77;;;3.60;99.90;;;;;;4659756;29;180064;-72
2020/12/08 17:02:00;;;;;;;53.60;32.20;;;3.50;99.90;;;;;;4655299;29;178279;-71
2020/12/08 17:04:26;;;;;;;43.67;29.30;;;3.60;99.90;;;;;;4646519;29;179088;-69
2020/12/08 17:06:53;;;;;;;45.37;31.17;;;3.50;99.90;;;;;;4652774;29;177977;-69
2020/12/08 17:09:21;;;;;;;50.07;33.00;;;3.60;99.90;;;;;;4660266;29;179373;-71
2020/12/08 17:11:47;;;;;;;43.10;30.20;;;3.50;99.90;;;;;;4652322;29;178424;-72
2020/12/08 17:14:14;;;;;;;44.90;29.93;;;3.50;99.90;;;;;;4651243;29;179426;-71
2020/12/08 17:16:41;;;;;;;47.87;32.00;;;3.50;99.90;;;;;;4653954;29;179313;-71
2020/12/08 17:19:09;;;;;;;46.73;32.67;;;3.50;99.90;;;;;;4656585;29;182602;-72
2020/12/08 17:21:39;;;;;;;58.57;32.47;;;3.50;99.90;;;;;;4670060;29;182714;-71
2020/12/08 17:24:06;;;;;;;44.53;29.97;;;3.60;99.90;;;;;;4666964;29;178922;-71
2020/12/08 17:26:33;;;;;;;42.57;30.63;;;3.50;99.90;;;;;;4651110;29;177856;-70
2020/12/08 17:29:08;;;;;;;41.27;28.67;;;3.50;99.90;;;;;;4660592;29;179410;-72